Bienvenue sur notre nouveau site.

Voir la vidéo

Découvrez notre nouvelle vidéo !

Cliquez ici
Réserver un
vol-d'initiation. vol-à-sensation.

Vous pouvez réserver un vol à sensation et/ou une initiation sur le site internet.

réserveren savoir plus

La team Sparflex

Les membres de Fly&Fun ont à cœur d’entretenir et de mettre en œuvre trois L-39 Albatros connus pour leur performance et maniabilité.

  • Identité

    Aymeric.

    Pilote de chasse dans l’aéronavale.
    Leader de la patrouille Sparflex
    6000h

    de vol

  • Identité

    Michel.

    Premier pilote de L39 en France sur lequel il totalise près de 12000 heures.

    12000h

    de vol

  • Identité

    Renan.

    Pilote de chasse dans l’armée de l’air.
    Instructeur voltige
    9000h

    de vol

  • Identité

    Stéphane.

    Responsable technique.
    20 ans d’expérience militaire sur Jaguar et Rafale.

    20ans

    d'expérience

Mon Vol en vidéo

Grâce à la caméra qui enregistre le vol, revivez l'expérience et faites partager vos sensations à vos proches. Cette vidéo est accessible directement sur notre site !

Télécharger ma vidéo**

**Un identifiant et un mot de passe fournis par l’association Fly&Fun vous sera demandé pour afficher votre lien de téléchargement. En cas de perte, n’hésitez pas à nous contacter.

METAR :

LFQA 230200Z AUTO 12013KT 8000 -RA ///TCU 07/05 Q0994


vue en direct sur l'aérodrome
Cochet Concept
cx